sensor_id;sensor_type;location;lat;lon;timestamp;temperature;humidity
17128;DHT22;8679;50.842;4.322;2022-09-02T00:03:42;18.80;99.90
17128;DHT22;8679;50.842;4.322;2022-09-02T00:06:08;18.70;99.90
17128;DHT22;8679;50.842;4.322;2022-09-02T00:08:35;18.70;99.90
17128;DHT22;8679;50.842;4.322;2022-09-02T00:11:01;18.70;99.90
17128;DHT22;8679;50.842;4.322;2022-09-02T00:13:30;18.70;99.90
17128;DHT22;8679;50.842;4.322;2022-09-02T00:15:56;18.70;99.90
17128;DHT22;8679;50.842;4.322;2022-09-02T00:18:22;18.70;99.90
17128;DHT22;8679;50.842;4.322;2022-09-02T00:20:51;18.60;99.90
17128;DHT22;8679;50.842;4.322;2022-09-02T00:23:16;18.60;99.90
17128;DHT22;8679;50.842;4.322;2022-09-02T00:25:43;18.60;99.90
17128;DHT22;8679;50.842;4.322;2022-09-02T00:28:10;18.60;99.90
17128;DHT22;8679;50.842;4.322;2022-09-02T00:30:36;18.60;99.90
17128;DHT22;8679;50.842;4.322;2022-09-02T00:33:03;18.60;99.90
17128;DHT22;8679;50.842;4.322;2022-09-02T00:35:30;18.60;99.90
17128;DHT22;8679;50.842;4.322;2022-09-02T00:37:56;18.60;99.90
17128;DHT22;8679;50.842;4.322;2022-09-02T00:40:21;18.50;99.90
17128;DHT22;8679;50.842;4.322;2022-09-02T00:42:48;18.50;99.90
17128;DHT22;8679;50.842;4.322;2022-09-02T00:45:14;18.50;99.90
17128;DHT22;8679;50.842;4.322;2022-09-02T00:47:40;18.50;99.90
17128;DHT22;8679;50.842;4.322;2022-09-02T00:50:08;18.50;99.90
17128;DHT22;8679;50.842;4.322;2022-09-02T00:52:51;18.50;99.90
17128;DHT22;8679;50.842;4.322;2022-09-02T00:55:27;18.50;99.90
17128;DHT22;8679;50.842;4.322;2022-09-02T00:57:57;18.40;99.90
17128;DHT22;8679;50.842;4.322;2022-09-02T01:00:30;18.40;99.90
17128;DHT22;8679;50.842;4.322;2022-09-02T01:03:01;18.40;99.90
17128;DHT22;8679;50.842;4.322;2022-09-02T01:05:29;18.40;99.90
17128;DHT22;8679;50.842;4.322;2022-09-02T01:07:57;18.30;99.90
17128;DHT22;8679;50.842;4.322;2022-09-02T01:10:29;18.30;99.90
17128;DHT22;8679;50.842;4.322;2022-09-02T01:13:07;18.20;99.90
17128;DHT22;8679;50.842;4.322;2022-09-02T01:15:37;18.20;99.90
17128;DHT22;8679;50.842;4.322;2022-09-02T01:18:04;18.20;99.90
17128;DHT22;8679;50.842;4.322;2022-09-02T01:20:31;18.10;99.90
17128;DHT22;8679;50.842;4.322;2022-09-02T01:22:57;18.20;99.90
17128;DHT22;8679;50.842;4.322;2022-09-02T01:25:28;18.20;99.90
17128;DHT22;8679;50.842;4.322;2022-09-02T01:28:03;18.20;99.90
17128;DHT22;8679;50.842;4.322;2022-09-02T01:30:29;18.10;99.90
17128;DHT22;8679;50.842;4.322;2022-09-02T01:32:55;18.20;99.90
17128;DHT22;8679;50.842;4.322;2022-09-02T01:35:21;18.10;99.90
17128;DHT22;8679;50.842;4.322;2022-09-02T01:37:47;18.10;99.90
17128;DHT22;8679;50.842;4.322;2022-09-02T01:40:15;18.10;99.90
17128;DHT22;8679;50.842;4.322;2022-09-02T01:42:42;18.10;99.90
17128;DHT22;8679;50.842;4.322;2022-09-02T01:45:09;18.10;99.90
17128;DHT22;8679;50.842;4.322;2022-09-02T01:47:35;18.00;99.90
17128;DHT22;8679;50.842;4.322;2022-09-02T01:50:04;18.00;99.90
17128;DHT22;8679;50.842;4.322;2022-09-02T01:52:30;18.00;99.90
17128;DHT22;8679;50.842;4.322;2022-09-02T01:54:56;17.90;99.90
17128;DHT22;8679;50.842;4.322;2022-09-02T01:57:22;17.90;99.90
17128;DHT22;8679;50.842;4.322;2022-09-02T01:59:52;17.90;99.90
17128;DHT22;8679;50.842;4.322;2022-09-02T02:02:19;17.80;99.90
17128;DHT22;8679;50.842;4.322;2022-09-02T02:04:46;17.80;99.90
17128;DHT22;8679;50.842;4.322;2022-09-02T02:07:14;17.80;99.90
17128;DHT22;8679;50.842;4.322;2022-09-02T02:09:41;17.70;99.90
17128;DHT22;8679;50.842;4.322;2022-09-02T02:12:07;17.80;99.90
17128;DHT22;8679;50.842;4.322;2022-09-02T02:14:33;17.80;99.90
17128;DHT22;8679;50.842;4.322;2022-09-02T02:16:59;17.80;99.90
17128;DHT22;8679;50.842;4.322;2022-09-02T02:19:26;17.70;99.90
17128;DHT22;8679;50.842;4.322;2022-09-02T02:21:51;17.70;99.90
17128;DHT22;8679;50.842;4.322;2022-09-02T02:24:17;17.70;99.90
17128;DHT22;8679;50.842;4.322;2022-09-02T02:26:43;17.60;99.90
17128;DHT22;8679;50.842;4.322;2022-09-02T02:29:10;17.60;99.90
17128;DHT22;8679;50.842;4.322;2022-09-02T02:31:36;17.60;99.90
17128;DHT22;8679;50.842;4.322;2022-09-02T02:34:02;17.70;99.90
17128;DHT22;8679;50.842;4.322;2022-09-02T02:36:28;17.60;99.90
17128;DHT22;8679;50.842;4.322;2022-09-02T02:38:54;17.60;99.90
17128;DHT22;8679;50.842;4.322;2022-09-02T02:41:20;17.60;99.90
17128;DHT22;8679;50.842;4.322;2022-09-02T02:43:46;17.60;99.90
17128;DHT22;8679;50.842;4.322;2022-09-02T02:46:12;17.60;99.90
17128;DHT22;8679;50.842;4.322;2022-09-02T02:48:39;17.60;99.90
17128;DHT22;8679;50.842;4.322;2022-09-02T02:51:06;17.60;99.90
17128;DHT22;8679;50.842;4.322;2022-09-02T02:53:33;17.60;99.90
17128;DHT22;8679;50.842;4.322;2022-09-02T02:55:59;17.60;99.90
17128;DHT22;8679;50.842;4.322;2022-09-02T02:58:25;17.60;99.90
17128;DHT22;8679;50.842;4.322;2022-09-02T03:00:51;17.60;99.90
17128;DHT22;8679;50.842;4.322;2022-09-02T03:03:16;17.60;99.90
17128;DHT22;8679;50.842;4.322;2022-09-02T03:05:44;17.60;99.90
17128;DHT22;8679;50.842;4.322;2022-09-02T03:08:11;17.70;99.90
17128;DHT22;8679;50.842;4.322;2022-09-02T03:10:38;17.70;99.90
17128;DHT22;8679;50.842;4.322;2022-09-02T03:13:07;17.70;99.90
17128;DHT22;8679;50.842;4.322;2022-09-02T03:15:34;17.70;99.90
17128;DHT22;8679;50.842;4.322;2022-09-02T03:18:00;17.70;99.90
17128;DHT22;8679;50.842;4.322;2022-09-02T03:20:27;17.70;99.90
17128;DHT22;8679;50.842;4.322;2022-09-02T03:22:54;17.70;99.90
17128;DHT22;8679;50.842;4.322;2022-09-02T03:25:21;17.70;99.90
17128;DHT22;8679;50.842;4.322;2022-09-02T03:27:48;17.70;99.90
17128;DHT22;8679;50.842;4.322;2022-09-02T03:30:21;17.70;99.90
17128;DHT22;8679;50.842;4.322;2022-09-02T03:32:47;17.60;99.90
17128;DHT22;8679;50.842;4.322;2022-09-02T03:35:15;17.60;99.90
17128;DHT22;8679;50.842;4.322;2022-09-02T03:37:42;17.50;99.90
17128;DHT22;8679;50.842;4.322;2022-09-02T03:40:11;17.50;99.90
17128;DHT22;8679;50.842;4.322;2022-09-02T03:42:37;17.50;99.90
17128;DHT22;8679;50.842;4.322;2022-09-02T03:45:04;17.50;99.90
17128;DHT22;8679;50.842;4.322;2022-09-02T03:47:32;17.40;99.90
17128;DHT22;8679;50.842;4.322;2022-09-02T03:49:58;17.40;99.90
17128;DHT22;8679;50.842;4.322;2022-09-02T03:52:24;17.40;99.90
17128;DHT22;8679;50.842;4.322;2022-09-02T03:54:50;17.40;99.90
17128;DHT22;8679;50.842;4.322;2022-09-02T03:57:16;17.40;99.90
17128;DHT22;8679;50.842;4.322;2022-09-02T03:59:41;17.40;99.90
17128;DHT22;8679;50.842;4.322;2022-09-02T04:02:07;17.30;99.90
17128;DHT22;8679;50.842;4.322;2022-09-02T04:04:33;17.30;99.90
17128;DHT22;8679;50.842;4.322;2022-09-02T04:07:00;17.30;99.90
17128;DHT22;8679;50.842;4.322;2022-09-02T04:09:25;17.30;99.90
17128;DHT22;8679;50.842;4.322;2022-09-02T04:11:51;17.20;99.90
17128;DHT22;8679;50.842;4.322;2022-09-02T04:14:17;17.20;99.90
17128;DHT22;8679;50.842;4.322;2022-09-02T04:16:43;17.20;99.90
17128;DHT22;8679;50.842;4.322;2022-09-02T04:19:09;17.20;99.90
17128;DHT22;8679;50.842;4.322;2022-09-02T04:21:37;17.10;99.90
17128;DHT22;8679;50.842;4.322;2022-09-02T04:24:07;17.10;99.90
17128;DHT22;8679;50.842;4.322;2022-09-02T04:26:34;17.10;99.90
17128;DHT22;8679;50.842;4.322;2022-09-02T04:29:00;17.10;99.90
17128;DHT22;8679;50.842;4.322;2022-09-02T04:31:26;17.10;99.90
17128;DHT22;8679;50.842;4.322;2022-09-02T04:33:54;17.10;99.90
17128;DHT22;8679;50.842;4.322;2022-09-02T04:36:22;17.10;99.90
17128;DHT22;8679;50.842;4.322;2022-09-02T04:38:48;17.10;99.90
17128;DHT22;8679;50.842;4.322;2022-09-02T04:41:21;17.10;99.90
17128;DHT22;8679;50.842;4.322;2022-09-02T04:43:48;17.10;99.90
17128;DHT22;8679;50.842;4.322;2022-09-02T04:46:15;17.00;99.90
17128;DHT22;8679;50.842;4.322;2022-09-02T04:48:41;17.00;99.90
17128;DHT22;8679;50.842;4.322;2022-09-02T04:51:10;17.10;99.90
17128;DHT22;8679;50.842;4.322;2022-09-02T04:53:37;17.10;99.90
17128;DHT22;8679;50.842;4.322;2022-09-02T04:56:05;17.10;99.90
17128;DHT22;8679;50.842;4.322;2022-09-02T04:58:31;17.10;99.90
17128;DHT22;8679;50.842;4.322;2022-09-02T05:00:57;17.20;99.90
17128;DHT22;8679;50.842;4.322;2022-09-02T05:03:23;17.20;99.90
17128;DHT22;8679;50.842;4.322;2022-09-02T05:06:03;17.20;99.90
17128;DHT22;8679;50.842;4.322;2022-09-02T05:08:30;17.20;99.90
17128;DHT22;8679;50.842;4.322;2022-09-02T05:10:55;17.20;99.90
17128;DHT22;8679;50.842;4.322;2022-09-02T05:13:21;17.20;99.90
17128;DHT22;8679;50.842;4.322;2022-09-02T05:15:48;17.20;99.90
17128;DHT22;8679;50.842;4.322;2022-09-02T05:18:13;17.20;99.90
17128;DHT22;8679;50.842;4.322;2022-09-02T05:20:40;17.20;99.90
17128;DHT22;8679;50.842;4.322;2022-09-02T05:23:09;17.20;99.90
17128;DHT22;8679;50.842;4.322;2022-09-02T05:25:37;17.30;99.90
17128;DHT22;8679;50.842;4.322;2022-09-02T05:28:04;17.30;99.90
17128;DHT22;8679;50.842;4.322;2022-09-02T05:30:31;17.30;99.90
17128;DHT22;8679;50.842;4.322;2022-09-02T05:32:57;17.30;99.90
17128;DHT22;8679;50.842;4.322;2022-09-02T05:35:22;17.30;99.90
17128;DHT22;8679;50.842;4.322;2022-09-02T05:37:48;17.50;99.90
17128;DHT22;8679;50.842;4.322;2022-09-02T05:40:14;17.70;99.90
17128;DHT22;8679;50.842;4.322;2022-09-02T05:42:39;17.70;99.90
17128;DHT22;8679;50.842;4.322;2022-09-02T05:45:06;17.70;99.90
17128;DHT22;8679;50.842;4.322;2022-09-02T05:47:34;17.80;99.90
17128;DHT22;8679;50.842;4.322;2022-09-02T05:49:59;17.90;99.90
17128;DHT22;8679;50.842;4.322;2022-09-02T05:52:28;18.10;99.90
17128;DHT22;8679;50.842;4.322;2022-09-02T05:54:55;18.20;99.90
17128;DHT22;8679;50.842;4.322;2022-09-02T05:57:21;18.30;99.90
17128;DHT22;8679;50.842;4.322;2022-09-02T05:59:47;18.30;99.90
17128;DHT22;8679;50.842;4.322;2022-09-02T06:02:17;18.30;99.90
17128;DHT22;8679;50.842;4.322;2022-09-02T06:04:46;18.40;99.90
17128;DHT22;8679;50.842;4.322;2022-09-02T06:07:13;18.40;99.90
17128;DHT22;8679;50.842;4.322;2022-09-02T06:09:39;18.50;99.90
17128;DHT22;8679;50.842;4.322;2022-09-02T06:12:06;18.50;99.90
17128;DHT22;8679;50.842;4.322;2022-09-02T06:14:33;18.60;99.90
17128;DHT22;8679;50.842;4.322;2022-09-02T06:16:59;18.60;99.90
17128;DHT22;8679;50.842;4.322;2022-09-02T06:19:26;18.60;99.90
17128;DHT22;8679;50.842;4.322;2022-09-02T06:21:55;18.70;99.90
17128;DHT22;8679;50.842;4.322;2022-09-02T06:24:21;18.70;99.90
17128;DHT22;8679;50.842;4.322;2022-09-02T06:26:47;18.70;99.90
17128;DHT22;8679;50.842;4.322;2022-09-02T06:29:13;18.80;99.90
17128;DHT22;8679;50.842;4.322;2022-09-02T06:31:43;18.90;99.90
17128;DHT22;8679;50.842;4.322;2022-09-02T06:34:10;18.90;99.90
17128;DHT22;8679;50.842;4.322;2022-09-02T06:36:38;18.90;99.90
17128;DHT22;8679;50.842;4.322;2022-09-02T06:39:04;19.00;99.90
17128;DHT22;8679;50.842;4.322;2022-09-02T06:41:31;19.00;99.90
17128;DHT22;8679;50.842;4.322;2022-09-02T06:44:02;19.10;99.90
17128;DHT22;8679;50.842;4.322;2022-09-02T06:46:34;19.10;99.90
17128;DHT22;8679;50.842;4.322;2022-09-02T06:49:01;19.20;99.90
17128;DHT22;8679;50.842;4.322;2022-09-02T06:51:29;19.30;99.90
17128;DHT22;8679;50.842;4.322;2022-09-02T06:53:56;19.40;99.90
17128;DHT22;8679;50.842;4.322;2022-09-02T06:56:22;19.40;99.90
17128;DHT22;8679;50.842;4.322;2022-09-02T06:58:48;19.50;99.90
17128;DHT22;8679;50.842;4.322;2022-09-02T07:01:18;19.60;99.90
17128;DHT22;8679;50.842;4.322;2022-09-02T07:03:44;19.70;99.90
17128;DHT22;8679;50.842;4.322;2022-09-02T07:06:33;19.70;99.90
17128;DHT22;8679;50.842;4.322;2022-09-02T07:09:03;19.80;99.90
17128;DHT22;8679;50.842;4.322;2022-09-02T07:11:29;19.90;99.90
17128;DHT22;8679;50.842;4.322;2022-09-02T07:13:55;19.90;99.90
17128;DHT22;8679;50.842;4.322;2022-09-02T07:16:20;20.00;99.90
17128;DHT22;8679;50.842;4.322;2022-09-02T07:18:46;20.00;99.90
17128;DHT22;8679;50.842;4.322;2022-09-02T07:21:12;20.10;99.90
17128;DHT22;8679;50.842;4.322;2022-09-02T07:23:38;20.10;99.90
17128;DHT22;8679;50.842;4.322;2022-09-02T07:26:11;20.20;99.90
17128;DHT22;8679;50.842;4.322;2022-09-02T07:28:37;20.30;99.90
17128;DHT22;8679;50.842;4.322;2022-09-02T07:31:07;20.30;99.90
17128;DHT22;8679;50.842;4.322;2022-09-02T07:33:33;20.30;99.90
17128;DHT22;8679;50.842;4.322;2022-09-02T07:36:02;20.40;99.90
17128;DHT22;8679;50.842;4.322;2022-09-02T07:38:30;20.50;99.90
17128;DHT22;8679;50.842;4.322;2022-09-02T07:40:56;20.60;99.90
17128;DHT22;8679;50.842;4.322;2022-09-02T07:43:22;20.60;99.90
17128;DHT22;8679;50.842;4.322;2022-09-02T07:45:47;20.70;99.90
17128;DHT22;8679;50.842;4.322;2022-09-02T07:48:14;20.70;99.90
17128;DHT22;8679;50.842;4.322;2022-09-02T07:50:40;20.80;99.90
17128;DHT22;8679;50.842;4.322;2022-09-02T07:53:07;20.80;99.90
17128;DHT22;8679;50.842;4.322;2022-09-02T07:55:35;20.90;99.90
17128;DHT22;8679;50.842;4.322;2022-09-02T07:58:01;21.00;99.90
17128;DHT22;8679;50.842;4.322;2022-09-02T08:00:28;21.00;99.90
17128;DHT22;8679;50.842;4.322;2022-09-02T08:02:54;21.00;99.90
17128;DHT22;8679;50.842;4.322;2022-09-02T08:05:20;21.10;99.90
17128;DHT22;8679;50.842;4.322;2022-09-02T08:07:46;21.20;99.90
17128;DHT22;8679;50.842;4.322;2022-09-02T08:10:13;21.30;99.90
17128;DHT22;8679;50.842;4.322;2022-09-02T08:12:43;21.40;99.90
17128;DHT22;8679;50.842;4.322;2022-09-02T08:15:15;21.50;99.90
17128;DHT22;8679;50.842;4.322;2022-09-02T08:17:41;21.50;99.90
17128;DHT22;8679;50.842;4.322;2022-09-02T08:20:09;21.50;99.90
17128;DHT22;8679;50.842;4.322;2022-09-02T08:22:37;21.60;99.90
17128;DHT22;8679;50.842;4.322;2022-09-02T08:25:03;21.60;99.90
17128;DHT22;8679;50.842;4.322;2022-09-02T08:27:29;21.70;99.90
17128;DHT22;8679;50.842;4.322;2022-09-02T08:29:55;21.80;99.90
17128;DHT22;8679;50.842;4.322;2022-09-02T08:32:21;21.90;99.90
17128;DHT22;8679;50.842;4.322;2022-09-02T08:34:46;22.00;99.90
17128;DHT22;8679;50.842;4.322;2022-09-02T08:37:12;22.10;99.90
17128;DHT22;8679;50.842;4.322;2022-09-02T08:39:38;22.10;99.90
17128;DHT22;8679;50.842;4.322;2022-09-02T08:42:21;22.20;99.90
17128;DHT22;8679;50.842;4.322;2022-09-02T08:44:50;22.20;99.90
17128;DHT22;8679;50.842;4.322;2022-09-02T08:47:22;22.30;99.90
17128;DHT22;8679;50.842;4.322;2022-09-02T08:50:13;22.30;99.90
17128;DHT22;8679;50.842;4.322;2022-09-02T08:55:18;22.60;99.90
17128;DHT22;8679;50.842;4.322;2022-09-02T08:57:46;22.60;99.90
17128;DHT22;8679;50.842;4.322;2022-09-02T09:00:12;22.60;99.90
17128;DHT22;8679;50.842;4.322;2022-09-02T09:02:59;22.70;99.90
17128;DHT22;8679;50.842;4.322;2022-09-02T09:11:02;22.90;99.90
17128;DHT22;8679;50.842;4.322;2022-09-02T09:16:39;23.10;99.90
17128;DHT22;8679;50.842;4.322;2022-09-02T09:19:14;23.30;99.90
17128;DHT22;8679;50.842;4.322;2022-09-02T09:21:42;23.40;99.90
17128;DHT22;8679;50.842;4.322;2022-09-02T09:25:03;23.60;99.90
17128;DHT22;8679;50.842;4.322;2022-09-02T09:27:20;23.60;99.90
17128;DHT22;8679;50.842;4.322;2022-09-02T09:29:48;23.60;99.90
17128;DHT22;8679;50.842;4.322;2022-09-02T09:32:32;23.60;99.90
17128;DHT22;8679;50.842;4.322;2022-09-02T09:40:00;24.00;99.90
17128;DHT22;8679;50.842;4.322;2022-09-02T09:42:35;24.20;99.90
17128;DHT22;8679;50.842;4.322;2022-09-02T09:45:28;24.30;99.90
17128;DHT22;8679;50.842;4.322;2022-09-02T09:51:26;24.40;99.90
17128;DHT22;8679;50.842;4.322;2022-09-02T09:53:32;24.50;99.90
17128;DHT22;8679;50.842;4.322;2022-09-02T09:56:00;24.60;99.90
17128;DHT22;8679;50.842;4.322;2022-09-02T09:58:48;24.80;99.90
17128;DHT22;8679;50.842;4.322;2022-09-02T10:01:25;24.80;99.90
17128;DHT22;8679;50.842;4.322;2022-09-02T10:03:54;24.90;99.90
17128;DHT22;8679;50.842;4.322;2022-09-02T10:09:05;24.90;99.90
17128;DHT22;8679;50.842;4.322;2022-09-02T10:11:33;24.90;99.90
17128;DHT22;8679;50.842;4.322;2022-09-02T10:14:04;25.00;99.90
17128;DHT22;8679;50.842;4.322;2022-09-02T10:16:37;25.10;99.90
17128;DHT22;8679;50.842;4.322;2022-09-02T10:19:25;25.10;99.90
17128;DHT22;8679;50.842;4.322;2022-09-02T10:22:36;25.10;99.90
17128;DHT22;8679;50.842;4.322;2022-09-02T10:25:24;25.40;99.90
17128;DHT22;8679;50.842;4.322;2022-09-02T10:28:01;25.50;99.90
17128;DHT22;8679;50.842;4.322;2022-09-02T10:33:21;25.70;99.90
17128;DHT22;8679;50.842;4.322;2022-09-02T10:36:02;25.80;99.90
17128;DHT22;8679;50.842;4.322;2022-09-02T10:38:41;25.70;99.90
17128;DHT22;8679;50.842;4.322;2022-09-02T10:41:13;25.70;99.90
17128;DHT22;8679;50.842;4.322;2022-09-02T10:46:23;25.70;99.90
17128;DHT22;8679;50.842;4.322;2022-09-02T10:49:03;25.80;99.90
17128;DHT22;8679;50.842;4.322;2022-09-02T10:57:33;26.30;99.90
17128;DHT22;8679;50.842;4.322;2022-09-02T11:00:16;26.40;99.90
17128;DHT22;8679;50.842;4.322;2022-09-02T11:05:36;26.60;99.90
17128;DHT22;8679;50.842;4.322;2022-09-02T11:08:09;26.60;99.90
17128;DHT22;8679;50.842;4.322;2022-09-02T11:10:40;26.90;99.90
17128;DHT22;8679;50.842;4.322;2022-09-02T11:13:21;27.00;99.90
17128;DHT22;8679;50.842;4.322;2022-09-02T11:15:56;27.10;99.90
17128;DHT22;8679;50.842;4.322;2022-09-02T11:23:58;27.20;99.90
17128;DHT22;8679;50.842;4.322;2022-09-02T11:26:38;27.20;99.90
17128;DHT22;8679;50.842;4.322;2022-09-02T11:32:03;27.30;99.90
17128;DHT22;8679;50.842;4.322;2022-09-02T11:37:07;28.00;99.90
17128;DHT22;8679;50.842;4.322;2022-09-02T11:39:58;28.20;99.90
17128;DHT22;8679;50.842;4.322;2022-09-02T11:53:22;28.90;97.00
17128;DHT22;8679;50.842;4.322;2022-09-02T11:55:50;29.10;96.50
17128;DHT22;8679;50.842;4.322;2022-09-02T11:58:33;29.40;94.40
17128;DHT22;8679;50.842;4.322;2022-09-02T12:01:05;29.10;92.60
17128;DHT22;8679;50.842;4.322;2022-09-02T12:03:33;29.10;93.80
17128;DHT22;8679;50.842;4.322;2022-09-02T12:06:09;29.10;91.40
17128;DHT22;8679;50.842;4.322;2022-09-02T12:11:09;29.30;91.60
17128;DHT22;8679;50.842;4.322;2022-09-02T12:13:54;29.70;88.00
17128;DHT22;8679;50.842;4.322;2022-09-02T12:16:35;29.50;85.80
17128;DHT22;8679;50.842;4.322;2022-09-02T12:21:32;30.10;84.70
17128;DHT22;8679;50.842;4.322;2022-09-02T12:24:01;30.70;80.20
17128;DHT22;8679;50.842;4.322;2022-09-02T12:29:11;31.20;73.10
17128;DHT22;8679;50.842;4.322;2022-09-02T12:31:51;31.70;67.90
17128;DHT22;8679;50.842;4.322;2022-09-02T12:42:15;33.10;53.30
17128;DHT22;8679;50.842;4.322;2022-09-02T12:50:29;34.40;46.70
17128;DHT22;8679;50.842;4.322;2022-09-02T12:55:37;34.60;40.00
17128;DHT22;8679;50.842;4.322;2022-09-02T12:58:08;34.80;39.00
17128;DHT22;8679;50.842;4.322;2022-09-02T13:00:58;34.80;37.00
17128;DHT22;8679;50.842;4.322;2022-09-02T13:03:58;35.30;36.10
17128;DHT22;8679;50.842;4.322;2022-09-02T13:34:43;37.00;24.90
17128;DHT22;8679;50.842;4.322;2022-09-02T13:37:33;37.50;24.10
17128;DHT22;8679;50.842;4.322;2022-09-02T13:40:02;37.10;22.70
17128;DHT22;8679;50.842;4.322;2022-09-02T13:42:29;37.30;23.30
17128;DHT22;8679;50.842;4.322;2022-09-02T13:45:28;37.20;23.40
17128;DHT22;8679;50.842;4.322;2022-09-02T13:47:59;36.50;22.10
17128;DHT22;8679;50.842;4.322;2022-09-02T13:50:30;36.70;22.90
17128;DHT22;8679;50.842;4.322;2022-09-02T13:53:00;37.10;22.20
17128;DHT22;8679;50.842;4.322;2022-09-02T13:55:27;37.40;21.20
17128;DHT22;8679;50.842;4.322;2022-09-02T13:58:02;37.40;21.40
17128;DHT22;8679;50.842;4.322;2022-09-02T14:00:39;37.60;20.30
17128;DHT22;8679;50.842;4.322;2022-09-02T14:03:17;38.00;19.60
17128;DHT22;8679;50.842;4.322;2022-09-02T14:05:44;37.80;19.30
17128;DHT22;8679;50.842;4.322;2022-09-02T14:08:17;37.60;18.80
17128;DHT22;8679;50.842;4.322;2022-09-02T14:10:43;36.80;19.00
17128;DHT22;8679;50.842;4.322;2022-09-02T14:13:10;36.70;19.70
17128;DHT22;8679;50.842;4.322;2022-09-02T14:15:38;36.70;19.60
17128;DHT22;8679;50.842;4.322;2022-09-02T14:20:32;36.90;18.80
17128;DHT22;8679;50.842;4.322;2022-09-02T14:22:58;36.90;18.60
17128;DHT22;8679;50.842;4.322;2022-09-02T14:25:26;36.80;18.10
17128;DHT22;8679;50.842;4.322;2022-09-02T14:27:58;37.10;18.30
17128;DHT22;8679;50.842;4.322;2022-09-02T14:33:22;37.40;16.90
17128;DHT22;8679;50.842;4.322;2022-09-02T14:41:18;36.20;17.50
17128;DHT22;8679;50.842;4.322;2022-09-02T14:43:53;36.00;18.10
17128;DHT22;8679;50.842;4.322;2022-09-02T14:46:22;36.40;18.20
17128;DHT22;8679;50.842;4.322;2022-09-02T14:49:09;36.40;18.20
17128;DHT22;8679;50.842;4.322;2022-09-02T14:51:45;36.40;16.80
17128;DHT22;8679;50.842;4.322;2022-09-02T14:54:11;35.80;17.70
17128;DHT22;8679;50.842;4.322;2022-09-02T14:56:57;35.00;17.30
17128;DHT22;8679;50.842;4.322;2022-09-02T14:59:23;34.30;18.00
17128;DHT22;8679;50.842;4.322;2022-09-02T15:01:50;34.00;17.90
17128;DHT22;8679;50.842;4.322;2022-09-02T15:04:16;33.70;18.30
17128;DHT22;8679;50.842;4.322;2022-09-02T15:06:44;33.50;18.60
17128;DHT22;8679;50.842;4.322;2022-09-02T15:09:11;33.20;18.80
17128;DHT22;8679;50.842;4.322;2022-09-02T15:11:39;33.10;20.10
17128;DHT22;8679;50.842;4.322;2022-09-02T15:14:06;33.20;18.90
17128;DHT22;8679;50.842;4.322;2022-09-02T15:16:31;33.40;19.80
17128;DHT22;8679;50.842;4.322;2022-09-02T15:18:57;33.20;18.90
17128;DHT22;8679;50.842;4.322;2022-09-02T15:21:23;33.00;18.50
17128;DHT22;8679;50.842;4.322;2022-09-02T15:23:48;32.60;19.40
17128;DHT22;8679;50.842;4.322;2022-09-02T15:26:15;32.60;19.20
17128;DHT22;8679;50.842;4.322;2022-09-02T15:28:41;32.60;19.90
17128;DHT22;8679;50.842;4.322;2022-09-02T15:31:08;32.60;19.70
17128;DHT22;8679;50.842;4.322;2022-09-02T15:33:34;33.40;20.30
17128;DHT22;8679;50.842;4.322;2022-09-02T15:36:05;33.40;20.00
17128;DHT22;8679;50.842;4.322;2022-09-02T15:38:31;33.30;18.50
17128;DHT22;8679;50.842;4.322;2022-09-02T15:41:15;33.10;19.10
17128;DHT22;8679;50.842;4.322;2022-09-02T15:43:42;32.50;18.50
17128;DHT22;8679;50.842;4.322;2022-09-02T15:46:28;32.20;20.00
17128;DHT22;8679;50.842;4.322;2022-09-02T15:48:54;31.80;19.90
17128;DHT22;8679;50.842;4.322;2022-09-02T15:51:22;31.60;19.50
17128;DHT22;8679;50.842;4.322;2022-09-02T15:53:54;31.30;19.60
17128;DHT22;8679;50.842;4.322;2022-09-02T15:56:22;31.20;20.10
17128;DHT22;8679;50.842;4.322;2022-09-02T15:59:03;30.90;20.30
17128;DHT22;8679;50.842;4.322;2022-09-02T16:01:34;30.60;20.60
17128;DHT22;8679;50.842;4.322;2022-09-02T16:04:01;30.40;21.10
17128;DHT22;8679;50.842;4.322;2022-09-02T16:06:28;30.30;21.30
17128;DHT22;8679;50.842;4.322;2022-09-02T16:08:53;30.20;21.40
17128;DHT22;8679;50.842;4.322;2022-09-02T16:11:20;30.00;21.80
17128;DHT22;8679;50.842;4.322;2022-09-02T16:13:46;29.90;21.90
17128;DHT22;8679;50.842;4.322;2022-09-02T16:16:13;29.80;21.40
17128;DHT22;8679;50.842;4.322;2022-09-02T16:18:41;29.90;22.60
17128;DHT22;8679;50.842;4.322;2022-09-02T16:21:09;29.80;22.00
17128;DHT22;8679;50.842;4.322;2022-09-02T16:23:35;29.70;22.40
17128;DHT22;8679;50.842;4.322;2022-09-02T16:26:25;29.60;22.40
17128;DHT22;8679;50.842;4.322;2022-09-02T16:28:53;29.40;22.20
17128;DHT22;8679;50.842;4.322;2022-09-02T16:31:21;29.30;22.30
17128;DHT22;8679;50.842;4.322;2022-09-02T16:33:53;29.10;22.60
17128;DHT22;8679;50.842;4.322;2022-09-02T16:36:20;29.00;23.10
17128;DHT22;8679;50.842;4.322;2022-09-02T16:38:45;28.90;22.80
17128;DHT22;8679;50.842;4.322;2022-09-02T16:41:47;28.70;23.00
17128;DHT22;8679;50.842;4.322;2022-09-02T16:44:21;28.50;23.00
17128;DHT22;8679;50.842;4.322;2022-09-02T16:46:48;28.40;23.40
17128;DHT22;8679;50.842;4.322;2022-09-02T16:49:16;28.30;23.50
17128;DHT22;8679;50.842;4.322;2022-09-02T16:51:44;28.20;23.60
17128;DHT22;8679;50.842;4.322;2022-09-02T16:54:09;28.10;23.70
17128;DHT22;8679;50.842;4.322;2022-09-02T16:56:36;28.00;23.80
17128;DHT22;8679;50.842;4.322;2022-09-02T16:59:05;27.90;24.10
17128;DHT22;8679;50.842;4.322;2022-09-02T17:01:31;27.80;24.00
17128;DHT22;8679;50.842;4.322;2022-09-02T17:03:57;27.70;24.30
17128;DHT22;8679;50.842;4.322;2022-09-02T17:06:24;27.60;24.60
17128;DHT22;8679;50.842;4.322;2022-09-02T17:08:50;27.60;24.50
17128;DHT22;8679;50.842;4.322;2022-09-02T17:11:32;27.50;24.70
17128;DHT22;8679;50.842;4.322;2022-09-02T17:14:07;27.40;24.60
17128;DHT22;8679;50.842;4.322;2022-09-02T17:16:39;27.30;25.00
17128;DHT22;8679;50.842;4.322;2022-09-02T17:19:06;27.30;25.10
17128;DHT22;8679;50.842;4.322;2022-09-02T17:24:01;27.20;25.80
17128;DHT22;8679;50.842;4.322;2022-09-02T17:26:29;27.20;26.00
17128;DHT22;8679;50.842;4.322;2022-09-02T17:28:56;27.20;26.10
17128;DHT22;8679;50.842;4.322;2022-09-02T17:31:30;27.10;26.00
17128;DHT22;8679;50.842;4.322;2022-09-02T17:33:58;27.00;26.60
17128;DHT22;8679;50.842;4.322;2022-09-02T17:36:25;27.00;26.60
17128;DHT22;8679;50.842;4.322;2022-09-02T17:38:56;26.90;26.60
17128;DHT22;8679;50.842;4.322;2022-09-02T17:41:24;26.80;26.90
17128;DHT22;8679;50.842;4.322;2022-09-02T17:44:09;26.80;27.50
17128;DHT22;8679;50.842;4.322;2022-09-02T17:46:35;26.70;27.70
17128;DHT22;8679;50.842;4.322;2022-09-02T17:49:01;26.60;27.90
17128;DHT22;8679;50.842;4.322;2022-09-02T17:51:27;26.60;28.10
17128;DHT22;8679;50.842;4.322;2022-09-02T17:53:53;26.60;28.20
17128;DHT22;8679;50.842;4.322;2022-09-02T18:01:30;26.40;28.10
17128;DHT22;8679;50.842;4.322;2022-09-02T18:06:32;26.40;28.50
17128;DHT22;8679;50.842;4.322;2022-09-02T18:09:00;26.30;28.50
17128;DHT22;8679;50.842;4.322;2022-09-02T18:11:28;26.30;30.40
17128;DHT22;8679;50.842;4.322;2022-09-02T18:21:33;25.00;60.00